createdAt,value
2019-02-04T00:01:23.884Z,95.80
2019-02-04T00:03:51.480Z,95.80
2019-02-04T00:06:18.788Z,95.90
2019-02-04T00:08:46.001Z,95.90
2019-02-04T00:11:13.204Z,95.90
2019-02-04T00:13:40.518Z,96.00
2019-02-04T00:16:07.705Z,96.10
2019-02-04T00:18:34.921Z,96.10
2019-02-04T00:21:02.537Z,96.20
2019-02-04T00:23:29.834Z,96.30
2019-02-04T00:25:57.045Z,96.30
2019-02-04T00:28:24.348Z,96.40
2019-02-04T00:30:51.684Z,96.50
2019-02-04T00:33:18.875Z,96.70
2019-02-04T00:35:46.185Z,96.70
2019-02-04T00:38:13.805Z,96.70
2019-02-04T00:40:41.120Z,96.80
2019-02-04T00:43:08.431Z,96.70
2019-02-04T00:45:35.741Z,96.80
2019-02-04T00:48:03.096Z,96.80
2019-02-04T00:50:30.408Z,96.80
2019-02-04T00:52:57.737Z,96.80
2019-02-04T00:55:25.439Z,96.80
2019-02-04T00:57:52.766Z,96.70
2019-02-04T01:00:22.695Z,96.80
2019-02-04T01:02:49.925Z,96.80
2019-02-04T01:05:18.081Z,96.80
2019-02-04T01:07:45.474Z,96.80
2019-02-04T01:10:15.331Z,96.80
2019-02-04T01:12:42.525Z,96.90
2019-02-04T01:15:09.719Z,97.00
2019-02-04T01:17:36.909Z,97.00
2019-02-04T01:20:04.716Z,97.10
2019-02-04T01:22:32.028Z,97.30
2019-02-04T01:24:59.237Z,97.40
2019-02-04T01:27:26.933Z,97.40
2019-02-04T01:29:54.157Z,97.50
2019-02-04T01:32:21.456Z,97.50
2019-02-04T01:34:49.040Z,97.50
2019-02-04T01:37:16.401Z,97.60
2019-02-04T01:39:43.645Z,97.60
2019-02-04T01:42:10.838Z,97.70
2019-02-04T01:44:38.238Z,97.70
2019-02-04T01:47:14.451Z,97.70
2019-02-04T01:49:34.783Z,97.70
2019-02-04T01:52:02.119Z,97.80
2019-02-04T01:54:29.631Z,97.80
2019-02-04T01:56:57.071Z,97.80
2019-02-04T01:59:24.435Z,97.90
2019-02-04T02:01:51.784Z,97.80
2019-02-04T02:04:19.009Z,97.90
2019-02-04T02:06:46.388Z,97.90
2019-02-04T02:09:25.337Z,97.90
2019-02-04T02:11:52.576Z,97.90
2019-02-04T02:14:20.117Z,98.00
2019-02-04T02:16:47.416Z,98.00
2019-02-04T02:19:14.628Z,98.30
2019-02-04T02:21:41.966Z,97.90
2019-02-04T02:24:09.268Z,97.90
2019-02-04T02:26:36.583Z,97.90
2019-02-04T02:29:04.122Z,97.90
2019-02-04T02:31:31.734Z,97.90
2019-02-04T02:33:58.963Z,98.00
2019-02-04T02:36:26.301Z,98.10
2019-02-04T02:38:53.679Z,98.20
2019-02-04T02:41:20.881Z,98.20
2019-02-04T02:43:48.095Z,98.20
2019-02-04T02:46:15.385Z,98.20
2019-02-04T02:48:43.090Z,98.20
2019-02-04T02:51:10.323Z,98.10
2019-02-04T02:53:37.564Z,98.10
2019-02-04T02:56:04.873Z,98.10
2019-02-04T02:58:32.196Z,98.10
2019-02-04T03:00:59.442Z,98.10
2019-02-04T03:03:26.801Z,98.00
2019-02-04T03:05:54.417Z,98.00
2019-02-04T03:08:21.668Z,98.00
2019-02-04T03:10:48.859Z,98.00
2019-02-04T03:13:16.174Z,98.00
2019-02-04T03:15:43.406Z,98.00
2019-02-04T03:18:10.708Z,97.90
2019-02-04T03:20:38.048Z,97.90
2019-02-04T03:23:05.780Z,97.90
2019-02-04T03:25:33.080Z,97.90
2019-02-04T03:28:00.418Z,97.90
2019-02-04T03:30:29.960Z,98.00
2019-02-04T03:32:57.158Z,98.00
2019-02-04T03:35:24.584Z,98.00
2019-02-04T03:37:52.478Z,98.00
2019-02-04T03:40:21.468Z,98.00
2019-02-04T03:42:48.803Z,98.00
2019-02-04T03:45:16.330Z,98.00
2019-02-04T03:47:43.666Z,98.00
2019-02-04T03:50:11.020Z,98.00
2019-02-04T03:52:38.335Z,98.00
2019-02-04T03:55:07.265Z,97.90
2019-02-04T03:57:34.563Z,98.00
2019-02-04T04:00:02.015Z,98.00
2019-02-04T04:02:29.653Z,98.00
2019-02-04T04:04:56.873Z,98.00
2019-02-04T04:07:24.198Z,98.10
2019-02-04T04:09:51.419Z,98.10
2019-02-04T04:12:19.043Z,98.10
2019-02-04T04:14:46.357Z,98.10
2019-02-04T04:17:13.684Z,98.20
2019-02-04T04:19:40.981Z,98.20
2019-02-04T04:22:08.418Z,98.30
2019-02-04T04:24:35.677Z,98.30
2019-02-04T04:27:03.278Z,98.40
2019-02-04T04:29:30.775Z,98.40
2019-02-04T04:31:57.999Z,98.40
2019-02-04T04:34:25.295Z,98.40
2019-02-04T04:36:52.521Z,98.40
2019-02-04T04:39:19.859Z,98.90
2019-02-04T04:41:47.174Z,98.60
2019-02-04T04:44:14.395Z,98.60
2019-02-04T04:46:42.122Z,98.70
2019-02-04T04:49:09.380Z,98.70
2019-02-04T04:51:36.701Z,98.80
2019-02-04T04:54:04.364Z,98.80
2019-02-04T04:56:31.661Z,98.90
2019-02-04T04:58:59.011Z,98.80
2019-02-04T05:01:26.211Z,98.90
2019-02-04T05:03:53.661Z,98.90
2019-02-04T05:06:20.855Z,99.00
2019-02-04T05:08:48.087Z,99.00
2019-02-04T05:11:15.391Z,99.00
2019-02-04T05:13:42.785Z,99.00
2019-02-04T05:16:10.145Z,99.00
2019-02-04T05:18:38.414Z,98.90
2019-02-04T05:21:05.982Z,98.90
2019-02-04T05:23:33.321Z,98.90
2019-02-04T05:26:00.621Z,98.90
2019-02-04T05:28:27.935Z,98.90
2019-02-04T05:30:55.155Z,98.90
2019-02-04T05:33:22.477Z,98.80
2019-02-04T05:35:49.803Z,98.80
2019-02-04T05:38:17.151Z,98.80
2019-02-04T05:40:44.574Z,98.80
2019-02-04T05:43:11.803Z,98.80
2019-02-04T05:45:39.039Z,98.80
2019-02-04T05:48:06.347Z,98.70
2019-02-04T05:50:33.671Z,98.70
2019-02-04T05:53:01.045Z,98.80
2019-02-04T05:55:30.569Z,98.70
2019-02-04T05:57:57.453Z,98.70
2019-02-04T06:00:43.947Z,99.00
2019-02-04T06:03:11.168Z,98.60
2019-02-04T06:05:38.895Z,98.60
2019-02-04T06:08:06.115Z,98.60
2019-02-04T06:10:33.407Z,98.60
2019-02-04T06:13:00.619Z,98.60
2019-02-04T06:15:27.837Z,98.60
2019-02-04T06:17:55.143Z,98.50
2019-02-04T06:20:22.332Z,98.50
2019-02-04T06:22:50.054Z,98.50
2019-02-04T06:25:17.357Z,98.50
2019-02-04T06:27:44.683Z,98.40
2019-02-04T06:30:12.039Z,98.50
2019-02-04T06:32:39.261Z,98.40
2019-02-04T06:35:06.653Z,98.40
2019-02-04T06:37:33.901Z,98.40
2019-02-04T06:40:01.507Z,98.30
2019-02-04T06:42:28.802Z,98.30
2019-02-04T06:44:56.106Z,98.40
2019-02-04T06:47:23.340Z,98.30
2019-02-04T06:49:50.637Z,98.40
2019-02-04T06:52:17.867Z,98.40
2019-02-04T06:54:45.297Z,98.30
2019-02-04T06:57:13.809Z,98.30
2019-02-04T06:59:41.179Z,98.30
2019-02-04T07:02:08.496Z,98.30
2019-02-04T07:04:35.881Z,98.30
2019-02-04T07:07:03.183Z,98.20
2019-02-04T07:09:30.600Z,98.20
2019-02-04T07:11:57.917Z,98.20
2019-02-04T07:14:25.568Z,98.20
2019-02-04T07:16:52.769Z,98.20
2019-02-04T07:19:24.265Z,98.20
2019-02-04T07:21:49.240Z,98.10
2019-02-04T07:24:16.505Z,98.10
2019-02-04T07:26:43.702Z,98.10
2019-02-04T07:29:10.974Z,98.00
2019-02-04T07:31:38.410Z,97.90
2019-02-04T07:34:05.799Z,97.90
2019-02-04T07:36:33.250Z,97.80
2019-02-04T07:39:00.577Z,97.70
2019-02-04T07:41:27.956Z,97.70
2019-02-04T07:43:55.532Z,97.60
2019-02-04T07:46:25.003Z,97.50
2019-02-04T07:48:52.085Z,97.40
2019-02-04T07:51:19.340Z,97.30
2019-02-04T07:53:46.694Z,97.20
2019-02-04T07:56:13.977Z,97.10
2019-02-04T07:58:41.346Z,97.00
2019-02-04T08:01:08.659Z,96.90
2019-02-04T08:03:35.994Z,96.80
2019-02-04T08:06:03.460Z,96.70
2019-02-04T08:08:31.962Z,96.60
2019-02-04T08:10:59.404Z,96.60
2019-02-04T08:13:26.714Z,96.50
2019-02-04T08:15:54.060Z,96.40
2019-02-04T08:18:21.392Z,96.30
2019-02-04T08:20:48.756Z,96.30
2019-02-04T08:23:15.994Z,96.20
2019-02-04T08:25:43.240Z,95.90
2019-02-04T08:28:10.555Z,95.90
2019-02-04T08:30:38.537Z,95.70
2019-02-04T08:33:06.117Z,95.70
2019-02-04T08:35:33.430Z,95.60
2019-02-04T08:38:00.731Z,95.50
2019-02-04T08:40:28.343Z,95.10
2019-02-04T08:42:55.983Z,94.90
2019-02-04T08:45:23.349Z,94.60
2019-02-04T08:47:50.888Z,94.50
2019-02-04T08:50:18.547Z,94.30
2019-02-04T08:52:46.247Z,93.90
2019-02-04T08:55:13.596Z,93.60
2019-02-04T08:57:41.018Z,93.30
2019-02-04T09:00:11.108Z,93.10
2019-02-04T09:02:38.442Z,93.20
2019-02-04T09:05:06.510Z,93.00
2019-02-04T09:07:33.834Z,92.70
2019-02-04T09:10:01.156Z,92.70
2019-02-04T09:12:28.665Z,92.60
2019-02-04T09:14:55.880Z,92.40
2019-02-04T09:17:23.198Z,92.30
2019-02-04T09:19:50.649Z,92.40
2019-02-04T09:22:17.957Z,92.30
2019-02-04T09:24:45.303Z,92.20
2019-02-04T09:27:12.658Z,92.20
2019-02-04T09:29:39.984Z,92.10
2019-02-04T09:32:07.378Z,92.00
2019-02-04T09:34:34.698Z,91.90
2019-02-04T09:37:02.412Z,91.70
2019-02-04T09:39:29.632Z,91.70
2019-02-04T09:41:57.007Z,91.40
2019-02-04T09:44:25.420Z,91.20
2019-02-04T09:46:52.816Z,91.20
2019-02-04T09:49:20.226Z,91.10
2019-02-04T09:51:47.660Z,90.70
2019-02-04T09:54:15.368Z,90.60
2019-02-04T09:56:42.705Z,90.50
2019-02-04T09:59:09.991Z,90.30
2019-02-04T10:01:37.373Z,90.30
2019-02-04T10:04:04.733Z,90.10
2019-02-04T10:06:32.164Z,90.00
2019-02-04T10:08:59.518Z,89.70
2019-02-04T10:11:27.216Z,89.30
2019-02-04T10:13:54.541Z,89.00
2019-02-04T10:16:21.765Z,87.90
2019-02-04T10:18:49.239Z,87.30
2019-02-04T10:21:16.710Z,86.80
2019-02-04T10:23:44.143Z,85.60
2019-02-04T10:26:11.577Z,83.30
2019-02-04T10:28:39.232Z,82.20
2019-02-04T10:31:06.637Z,81.10
2019-02-04T10:33:34.162Z,79.70
2019-02-04T10:36:01.754Z,77.80
2019-02-04T10:38:29.067Z,77.00
2019-02-04T10:40:56.488Z,76.20
2019-02-04T10:43:23.833Z,73.40
2019-02-04T10:45:51.407Z,71.90
2019-02-04T10:48:18.812Z,70.90
2019-02-04T10:50:47.259Z,68.40
2019-02-04T10:53:14.602Z,66.10
2019-02-04T10:55:42.018Z,64.80
2019-02-04T10:58:10.731Z,63.50
2019-02-04T11:00:39.099Z,61.50
2019-02-04T11:03:06.679Z,60.50
2019-02-04T11:05:34.838Z,60.00
2019-02-04T11:08:02.357Z,59.40
2019-02-04T11:10:32.927Z,58.80
2019-02-04T11:13:00.474Z,58.60
2019-02-04T11:15:27.957Z,58.30
2019-02-04T11:17:55.649Z,58.40
2019-02-04T11:20:25.149Z,58.00
2019-02-04T11:22:52.693Z,57.40
2019-02-04T11:25:20.449Z,56.20
2019-02-04T11:27:47.821Z,56.70
2019-02-04T11:30:29.610Z,55.50
2019-02-04T11:32:56.996Z,55.70
2019-02-04T11:35:24.444Z,55.90
2019-02-04T11:37:51.833Z,55.80
2019-02-04T11:40:22.457Z,55.10
2019-02-04T11:42:49.946Z,53.30
2019-02-04T11:45:17.417Z,52.50
2019-02-04T11:47:45.180Z,53.00
2019-02-04T11:50:12.619Z,53.30
2019-02-04T11:52:39.945Z,53.70
2019-02-04T11:55:08.153Z,55.20
2019-02-04T11:57:35.385Z,55.80
2019-02-04T12:00:03.926Z,55.70
2019-02-04T12:02:34.659Z,55.20
2019-02-04T12:05:00.514Z,54.80
2019-02-04T12:07:27.865Z,53.70
2019-02-04T12:09:55.201Z,53.20
2019-02-04T12:12:22.518Z,53.20
2019-02-04T12:14:49.897Z,53.70
2019-02-04T12:17:17.105Z,52.70
2019-02-04T12:19:44.441Z,53.40
2019-02-04T12:22:12.039Z,53.70
2019-02-04T12:24:39.357Z,54.10
2019-02-04T12:27:06.734Z,54.60
2019-02-04T12:29:34.112Z,54.60
2019-02-04T12:32:01.501Z,55.00
2019-02-04T12:34:28.882Z,55.30
2019-02-04T12:36:56.372Z,56.40
2019-02-04T12:39:24.113Z,56.90
2019-02-04T12:41:51.373Z,57.50
2019-02-04T12:44:19.213Z,58.10
2019-02-04T12:46:46.534Z,58.30
2019-02-04T12:49:13.890Z,58.50
2019-02-04T12:51:41.244Z,58.70
2019-02-04T12:54:08.565Z,58.80
2019-02-04T12:56:36.224Z,58.90
2019-02-04T12:59:03.541Z,59.00
2019-02-04T13:01:30.776Z,59.00
2019-02-04T13:03:58.137Z,58.40
2019-02-04T13:06:25.495Z,58.50
2019-02-04T13:08:52.789Z,58.10
2019-02-04T13:11:20.135Z,58.00
2019-02-04T13:13:47.791Z,57.80
2019-02-04T13:16:15.100Z,57.90
2019-02-04T13:18:42.660Z,57.90
2019-02-04T13:21:09.965Z,57.60
2019-02-04T13:23:37.399Z,57.50
2019-02-04T13:26:04.717Z,57.30
2019-02-04T13:28:32.075Z,56.70
2019-02-04T13:30:59.696Z,56.10
2019-02-04T13:33:27.053Z,55.60
2019-02-04T13:35:54.289Z,55.50
2019-02-04T13:38:21.534Z,55.20
2019-02-04T13:40:48.859Z,55.10
2019-02-04T13:43:16.193Z,55.00
2019-02-04T13:45:43.640Z,54.90
2019-02-04T13:48:11.241Z,55.00
2019-02-04T13:50:38.815Z,55.00
2019-02-04T13:53:06.418Z,54.50
2019-02-04T13:55:34.193Z,54.50
2019-02-04T13:58:02.369Z,54.50
2019-02-04T14:00:29.801Z,55.00
2019-02-04T14:02:59.291Z,54.90
2019-02-04T14:05:30.940Z,55.10
2019-02-04T14:07:56.983Z,55.50
2019-02-04T14:10:26.599Z,55.40
2019-02-04T14:12:53.834Z,55.40
2019-02-04T14:15:21.469Z,55.60
2019-02-04T14:17:48.811Z,55.80
2019-02-04T14:20:17.453Z,56.30
2019-02-04T14:22:46.558Z,56.90
2019-02-04T14:25:14.477Z,57.00
2019-02-04T14:27:41.908Z,57.00
2019-02-04T14:30:15.571Z,57.20
2019-02-04T14:32:42.911Z,56.60
2019-02-04T14:35:10.131Z,56.60
2019-02-04T14:37:37.491Z,56.60
2019-02-04T14:40:18.091Z,56.90
2019-02-04T14:42:35.488Z,57.10
2019-02-04T14:45:17.406Z,57.50
2019-02-04T14:48:14.788Z,57.80
2019-02-04T14:51:16.552Z,57.90
2019-02-04T14:54:20.688Z,58.00
2019-02-04T14:57:27.647Z,58.10
2019-02-04T15:00:40.346Z,58.30
2019-02-04T15:03:26.165Z,59.00
2019-02-04T15:06:21.088Z,59.10
2019-02-04T15:09:12.709Z,59.00
2019-02-04T15:11:58.982Z,59.10
2019-02-04T15:15:14.159Z,58.80
2019-02-04T15:18:10.509Z,58.40
2019-02-04T15:21:18.459Z,58.60
2019-02-04T15:24:08.957Z,58.30
2019-02-04T15:27:17.612Z,58.70
2019-02-04T15:29:51.580Z,58.90
2019-02-04T15:32:54.619Z,59.00
2019-02-04T15:36:05.269Z,58.90
2019-02-04T15:39:11.570Z,59.10
2019-02-04T15:42:32.469Z,59.10
2019-02-04T15:45:15.065Z,59.20
2019-02-04T15:47:59.121Z,59.40
2019-02-04T15:50:59.732Z,59.30
2019-02-04T15:53:27.075Z,59.50
2019-02-04T15:55:54.423Z,59.30
2019-02-04T15:58:21.825Z,59.50
2019-02-04T16:00:49.184Z,59.70
2019-02-04T16:03:16.528Z,59.80
2019-02-04T16:05:43.854Z,60.00
2019-02-04T16:08:11.195Z,60.30
2019-02-04T16:10:38.428Z,60.40
2019-02-04T16:13:05.745Z,60.00
2019-02-04T16:15:32.946Z,60.20
2019-02-04T16:18:00.580Z,60.20
2019-02-04T16:20:27.935Z,60.10
2019-02-04T16:22:58.575Z,60.40
2019-02-04T16:25:24.631Z,60.60
2019-02-04T16:27:52.004Z,60.80
2019-02-04T16:30:20.100Z,60.90
2019-02-04T16:32:47.444Z,61.10
2019-02-04T16:35:16.112Z,61.20
2019-02-04T16:37:43.627Z,62.00
2019-02-04T16:40:12.987Z,61.40
2019-02-04T16:42:40.302Z,61.30
2019-02-04T16:45:07.950Z,61.40
2019-02-04T16:47:35.299Z,61.50
2019-02-04T16:50:03.219Z,61.70
2019-02-04T16:52:30.544Z,61.80
2019-02-04T16:54:57.875Z,61.70
2019-02-04T16:57:25.134Z,61.90
2019-02-04T16:59:52.452Z,62.20
2019-02-04T17:02:19.789Z,62.10
2019-02-04T17:04:47.131Z,62.20
2019-02-04T17:07:14.402Z,62.40
2019-02-04T17:09:42.044Z,62.70
2019-02-04T17:12:09.283Z,63.00
2019-02-04T17:14:36.648Z,63.20
2019-02-04T17:17:03.876Z,63.10
2019-02-04T17:19:31.232Z,63.10
2019-02-04T17:21:58.582Z,63.00
2019-02-04T17:24:25.801Z,63.30
2019-02-04T17:26:54.357Z,63.30
2019-02-04T17:29:21.737Z,63.50
2019-02-04T17:31:48.985Z,63.80
2019-02-04T17:34:16.313Z,64.00
2019-02-04T17:36:43.677Z,64.10
2019-02-04T17:39:11.095Z,64.00
2019-02-04T17:41:38.335Z,64.10
2019-02-04T17:44:05.970Z,63.90
2019-02-04T17:46:33.492Z,64.30
2019-02-04T17:49:00.830Z,65.50
2019-02-04T17:51:28.158Z,66.90
2019-02-04T17:53:55.512Z,67.70
2019-02-04T17:56:22.961Z,68.00
2019-02-04T17:58:50.353Z,68.10
2019-02-04T18:01:17.993Z,66.80
2019-02-04T18:03:45.242Z,66.80
2019-02-04T18:06:12.542Z,66.40
2019-02-04T18:08:39.911Z,65.50
2019-02-04T18:11:07.357Z,64.70
2019-02-04T18:13:34.910Z,64.00
2019-02-04T18:16:02.241Z,63.30
2019-02-04T18:18:29.917Z,63.50
2019-02-04T18:20:57.401Z,63.50
2019-02-04T18:23:24.754Z,63.80
2019-02-04T18:25:52.110Z,64.10
2019-02-04T18:28:19.635Z,64.30
2019-02-04T18:30:47.012Z,64.70
2019-02-04T18:33:14.649Z,65.10
2019-02-04T18:35:42.124Z,65.40
2019-02-04T18:38:09.619Z,65.70
2019-02-04T18:40:37.068Z,65.70
2019-02-04T18:43:04.531Z,66.00
2019-02-04T18:45:31.984Z,66.00
2019-02-04T18:47:59.383Z,66.10
2019-02-04T18:50:28.289Z,66.20
2019-02-04T18:52:56.158Z,66.30
2019-02-04T18:55:25.821Z,66.50
2019-02-04T18:57:53.195Z,66.30
2019-02-04T19:00:22.474Z,66.40
2019-02-04T19:02:49.844Z,66.30
2019-02-04T19:05:17.358Z,66.30
2019-02-04T19:07:44.720Z,66.30
2019-02-04T19:10:13.472Z,66.70
2019-02-04T19:12:40.824Z,66.80
2019-02-04T19:15:11.224Z,66.60
2019-02-04T19:17:38.586Z,66.60
2019-02-04T19:20:08.434Z,66.80
2019-02-04T19:22:36.106Z,67.10
2019-02-04T19:25:04.984Z,67.30
2019-02-04T19:27:32.469Z,67.10
2019-02-04T19:29:59.837Z,67.40
2019-02-04T19:32:27.157Z,67.70
2019-02-04T19:34:54.493Z,67.90
2019-02-04T19:37:22.962Z,68.00
2019-02-04T19:39:50.637Z,68.00
2019-02-04T19:42:18.022Z,67.80
2019-02-04T19:44:45.433Z,67.80
2019-02-04T19:47:12.689Z,67.90
2019-02-04T19:49:40.111Z,68.00
2019-02-04T19:52:07.375Z,67.80
2019-02-04T19:54:34.723Z,67.90
2019-02-04T19:57:02.289Z,67.90
2019-02-04T19:59:29.591Z,68.00
2019-02-04T20:01:56.951Z,68.00
2019-02-04T20:04:24.231Z,67.80
2019-02-04T20:06:51.670Z,67.80
2019-02-04T20:09:19.042Z,67.40
2019-02-04T20:11:46.331Z,67.60
2019-02-04T20:14:15.995Z,67.70
2019-02-04T20:16:43.344Z,67.80
2019-02-04T20:19:10.894Z,67.80
2019-02-04T20:21:38.274Z,67.60
2019-02-04T20:24:05.754Z,67.80
2019-02-04T20:26:33.109Z,67.50
2019-02-04T20:29:00.484Z,66.80
2019-02-04T20:31:28.036Z,66.50
2019-02-04T20:33:55.381Z,66.80
2019-02-04T20:36:22.738Z,66.40
2019-02-04T20:38:50.086Z,66.20
2019-02-04T20:41:17.440Z,66.20
2019-02-04T20:43:44.782Z,66.00
2019-02-04T20:46:12.207Z,65.90
2019-02-04T20:48:39.572Z,66.10
2019-02-04T20:51:07.248Z,66.20
2019-02-04T20:53:35.766Z,65.60
2019-02-04T20:56:03.220Z,65.80
2019-02-04T20:58:30.557Z,65.60
2019-02-04T21:00:57.911Z,65.60
2019-02-04T21:03:25.282Z,65.40
2019-02-04T21:05:53.431Z,65.50
2019-02-04T21:08:20.972Z,65.50
2019-02-04T21:10:48.460Z,65.40
2019-02-04T21:13:15.932Z,65.70
2019-02-04T21:15:43.377Z,65.80
2019-02-04T21:18:10.738Z,66.00
2019-02-04T21:20:38.174Z,65.90
2019-02-04T21:23:05.612Z,66.00
2019-02-04T21:25:33.462Z,66.20
2019-02-04T21:28:00.782Z,66.10
2019-02-04T21:30:30.070Z,66.00
2019-02-04T21:32:57.574Z,66.70
2019-02-04T21:35:25.180Z,66.10
2019-02-04T21:37:52.562Z,66.30
2019-02-04T21:40:20.430Z,66.50
2019-02-04T21:42:47.950Z,66.90
2019-02-04T21:45:16.712Z,67.10
2019-02-04T21:47:44.066Z,67.30
2019-02-04T21:50:14.194Z,67.40
2019-02-04T21:52:41.569Z,67.10
2019-02-04T21:55:09.170Z,67.50
2019-02-04T21:57:36.399Z,68.20
2019-02-04T22:00:05.749Z,67.50
2019-02-04T22:02:32.996Z,67.40
2019-02-04T22:05:00.334Z,67.40
2019-02-04T22:07:27.687Z,67.30
2019-02-04T22:09:55.067Z,67.20
2019-02-04T22:12:22.789Z,67.00
2019-02-04T22:14:50.131Z,67.10
2019-02-04T22:17:17.758Z,68.20
2019-02-04T22:19:45.091Z,67.70
2019-02-04T22:22:12.767Z,67.80
2019-02-04T22:24:40.078Z,68.20
2019-02-04T22:27:07.415Z,68.80
2019-02-04T22:29:34.734Z,69.80
2019-02-04T22:32:02.086Z,70.30
2019-02-04T22:34:29.721Z,71.20
2019-02-04T22:36:57.039Z,71.90
2019-02-04T22:39:24.372Z,73.00
2019-02-04T22:41:51.717Z,75.20
2019-02-04T22:44:19.055Z,77.50
2019-02-04T22:46:46.489Z,77.20
2019-02-04T22:49:13.801Z,77.60
2019-02-04T22:51:41.149Z,78.20
2019-02-04T22:54:08.710Z,78.80
2019-02-04T22:56:36.057Z,79.70
2019-02-04T22:59:03.418Z,80.30
2019-02-04T23:01:39.157Z,81.10
2019-02-04T23:04:07.349Z,81.30
2019-02-04T23:06:34.701Z,81.50
2019-02-04T23:09:03.901Z,81.30
2019-02-04T23:11:31.129Z,81.40
2019-02-04T23:13:58.449Z,81.60
2019-02-04T23:16:25.761Z,81.60
2019-02-04T23:18:53.101Z,81.40
2019-02-04T23:21:20.430Z,81.20
2019-02-04T23:23:47.782Z,81.90
2019-02-04T23:26:15.096Z,81.20
2019-02-04T23:28:42.352Z,81.00
2019-02-04T23:31:09.570Z,80.90
2019-02-04T23:33:36.928Z,80.70
2019-02-04T23:36:04.515Z,80.60
2019-02-04T23:38:31.832Z,80.60
2019-02-04T23:40:59.088Z,80.60
2019-02-04T23:43:26.399Z,80.50
2019-02-04T23:45:56.524Z,80.10
2019-02-04T23:48:29.500Z,80.00
2019-02-04T23:50:56.792Z,80.10
2019-02-04T23:53:23.990Z,80.20
2019-02-04T23:55:54.696Z,80.10
2019-02-04T23:58:20.540Z,80.20
